createdAt,value
2019-05-09T00:00:26.305Z,3.45
2019-05-09T00:02:55.822Z,2.73
2019-05-09T00:05:25.532Z,2.50
2019-05-09T00:07:54.989Z,2.47
2019-05-09T00:10:38.349Z,3.03
2019-05-09T00:12:57.274Z,2.60
2019-05-09T00:15:27.826Z,3.33
2019-05-09T00:17:57.327Z,2.80
2019-05-09T00:20:45.893Z,2.30
2019-05-09T00:23:15.470Z,3.00
2019-05-09T00:25:45.037Z,2.40
2019-05-09T00:28:14.533Z,2.10
2019-05-09T00:31:14.996Z,2.30
2019-05-09T00:33:48.983Z,2.40
2019-05-09T00:36:18.467Z,2.50
2019-05-09T00:38:48.532Z,2.10
2019-05-09T00:41:19.085Z,2.30
2019-05-09T00:43:54.726Z,2.50
2019-05-09T00:46:39.853Z,2.70
2019-05-09T00:49:14.054Z,2.77
2019-05-09T00:51:43.768Z,2.27
2019-05-09T00:54:13.588Z,2.80
2019-05-09T00:56:43.945Z,2.10
2019-05-09T00:59:13.644Z,2.37
2019-05-09T01:01:43.763Z,2.20
2019-05-09T01:04:13.795Z,2.40
2019-05-09T01:06:43.480Z,2.30
2019-05-09T01:09:13.670Z,2.10
2019-05-09T01:11:43.956Z,1.90
2019-05-09T01:14:14.310Z,1.83
2019-05-09T01:16:44.139Z,2.10
2019-05-09T01:19:14.648Z,2.20
2019-05-09T01:21:44.179Z,2.20
2019-05-09T01:24:14.001Z,2.10
2019-05-09T01:26:43.713Z,1.87
2019-05-09T01:29:13.862Z,2.27
2019-05-09T01:31:43.738Z,1.92
2019-05-09T01:34:17.730Z,1.70
2019-05-09T01:37:09.949Z,2.03
2019-05-09T01:39:39.515Z,2.65
2019-05-09T01:42:09.071Z,2.13
2019-05-09T01:44:38.751Z,2.47
2019-05-09T01:47:08.360Z,2.63
2019-05-09T01:49:37.861Z,2.23
2019-05-09T01:52:07.358Z,1.90
2019-05-09T01:54:38.651Z,2.70
2019-05-09T01:57:08.115Z,2.33
2019-05-09T01:59:37.657Z,2.30
2019-05-09T02:02:08.905Z,2.40
2019-05-09T02:04:38.558Z,2.80
2019-05-09T02:07:08.035Z,2.67
2019-05-09T02:09:37.532Z,2.33
2019-05-09T02:12:07.001Z,2.80
2019-05-09T02:14:46.393Z,3.05
2019-05-09T02:17:38.093Z,2.90
2019-05-09T02:20:08.147Z,2.50
2019-05-09T02:22:37.711Z,3.20
2019-05-09T02:25:09.383Z,2.50
2019-05-09T02:27:38.855Z,2.90
2019-05-09T02:30:10.201Z,2.87
2019-05-09T02:32:39.761Z,2.87
2019-05-09T02:35:10.615Z,4.03
2019-05-09T02:37:40.058Z,2.73
2019-05-09T02:40:10.547Z,3.03
2019-05-09T02:42:40.472Z,3.50
2019-05-09T02:45:10.303Z,3.25
2019-05-09T02:47:39.800Z,3.43
2019-05-09T02:50:10.050Z,4.03
2019-05-09T02:52:40.140Z,3.83
2019-05-09T02:55:11.016Z,4.27
2019-05-09T02:57:40.656Z,4.70
2019-05-09T03:00:35.333Z,5.03
2019-05-09T03:03:09.643Z,5.00
2019-05-09T03:05:39.131Z,4.97
2019-05-09T03:08:09.704Z,4.27
2019-05-09T03:10:39.343Z,5.57
2019-05-09T03:13:09.504Z,4.57
2019-05-09T03:15:39.648Z,5.10
2019-05-09T03:18:09.531Z,4.50
2019-05-09T03:20:49.657Z,5.75
2019-05-09T03:23:19.569Z,6.08
2019-05-09T03:25:50.016Z,5.93
2019-05-09T03:28:32.931Z,6.03
2019-05-09T03:31:03.119Z,7.43
2019-05-09T03:33:35.853Z,5.67
2019-05-09T03:36:04.005Z,5.87
2019-05-09T03:38:33.470Z,5.13
2019-05-09T03:41:02.956Z,5.80
2019-05-09T03:43:32.429Z,5.57
2019-05-09T03:46:09.008Z,7.23
2019-05-09T03:48:43.745Z,5.40
2019-05-09T03:51:13.240Z,6.20
2019-05-09T03:53:42.719Z,7.00
2019-05-09T03:56:14.639Z,7.20
2019-05-09T03:58:44.173Z,6.40
2019-05-09T04:01:13.696Z,5.67
2019-05-09T04:03:43.158Z,6.37
2019-05-09T04:06:12.661Z,6.33
2019-05-09T04:08:42.171Z,5.73
2019-05-09T04:11:11.705Z,6.30
2019-05-09T04:13:47.873Z,6.37
2019-05-09T04:16:19.116Z,5.00
2019-05-09T04:18:49.696Z,6.57
2019-05-09T04:21:19.246Z,7.60
2019-05-09T04:23:49.201Z,7.50
2019-05-09T04:26:43.018Z,8.00
2019-05-09T04:29:12.517Z,7.47
2019-05-09T04:31:42.041Z,7.00
2019-05-09T04:34:11.517Z,6.40
2019-05-09T04:36:41.007Z,5.90
2019-05-09T04:39:12.814Z,6.80
2019-05-09T04:41:42.590Z,6.00
2019-05-09T04:44:28.416Z,7.13
2019-05-09T04:46:59.851Z,6.13
2019-05-09T04:49:30.105Z,6.28
2019-05-09T04:52:00.363Z,6.83
2019-05-09T04:54:29.846Z,5.73
2019-05-09T04:56:59.337Z,5.97
2019-05-09T04:59:28.797Z,5.70
2019-05-09T05:02:29.571Z,5.40
2019-05-09T05:04:59.065Z,7.43
2019-05-09T05:07:28.869Z,6.20
2019-05-09T05:09:58.378Z,5.70
2019-05-09T05:12:28.110Z,7.03
2019-05-09T05:14:58.087Z,6.10
2019-05-09T05:17:30.362Z,6.43
2019-05-09T05:19:59.639Z,6.60
2019-05-09T05:22:35.865Z,5.60
2019-05-09T05:25:05.537Z,6.77
2019-05-09T05:27:35.147Z,5.60
2019-05-09T05:30:07.352Z,5.23
2019-05-09T05:32:51.912Z,5.20
2019-05-09T05:35:40.434Z,5.33
2019-05-09T05:38:10.052Z,5.90
2019-05-09T05:40:45.157Z,6.00
2019-05-09T05:43:10.778Z,5.35
2019-05-09T05:45:48.033Z,6.00
2019-05-09T05:48:21.779Z,5.00
2019-05-09T05:50:51.340Z,5.67
2019-05-09T05:53:20.818Z,4.90
2019-05-09T05:55:52.660Z,4.50
2019-05-09T05:58:21.458Z,4.93
2019-05-09T06:00:51.040Z,5.07
2019-05-09T06:03:20.519Z,4.10
2019-05-09T06:05:51.783Z,3.70
2019-05-09T06:08:21.375Z,3.30
2019-05-09T06:10:50.874Z,3.63
2019-05-09T06:13:20.349Z,3.67
2019-05-09T06:15:49.886Z,3.80
2019-05-09T06:18:19.375Z,3.20
2019-05-09T06:20:48.837Z,3.20
2019-05-09T06:23:18.317Z,2.90
2019-05-09T06:25:48.423Z,3.00
2019-05-09T06:28:18.404Z,2.73
2019-05-09T06:30:48.008Z,2.83
2019-05-09T06:33:18.079Z,2.67
2019-05-09T06:35:48.206Z,3.23
2019-05-09T06:38:18.709Z,2.80
2019-05-09T06:40:48.376Z,3.03
2019-05-09T06:43:19.375Z,2.60
2019-05-09T06:46:27.758Z,2.57
2019-05-09T06:49:20.079Z,2.47
2019-05-09T06:51:30.245Z,2.25
2019-05-09T06:53:59.777Z,2.30
2019-05-09T06:56:29.267Z,2.40
2019-05-09T06:58:58.773Z,2.20
2019-05-09T07:01:48.125Z,2.50
2019-05-09T07:04:28.333Z,2.10
2019-05-09T07:07:17.694Z,2.17
2019-05-09T07:09:58.596Z,2.00
2019-05-09T07:12:28.229Z,2.90
2019-05-09T07:14:58.296Z,2.50
2019-05-09T07:17:31.698Z,2.40
2019-05-09T07:19:59.323Z,2.73
2019-05-09T07:22:39.216Z,2.33
2019-05-09T07:25:12.187Z,2.22
2019-05-09T07:27:41.712Z,2.43
2019-05-09T07:30:25.285Z,2.50
2019-05-09T07:33:01.442Z,2.47
2019-05-09T07:35:31.953Z,1.80
2019-05-09T07:38:02.315Z,2.00
2019-05-09T07:40:32.036Z,2.40
2019-05-09T07:43:02.957Z,1.85
2019-05-09T07:45:32.471Z,2.23
2019-05-09T07:48:02.215Z,2.47
2019-05-09T07:50:31.961Z,2.00
2019-05-09T07:53:02.873Z,1.85
2019-05-09T07:55:32.358Z,1.63
2019-05-09T07:58:02.812Z,2.40
2019-05-09T08:00:34.076Z,2.50
2019-05-09T08:03:03.639Z,2.70
2019-05-09T08:05:33.245Z,2.40
2019-05-09T08:08:04.236Z,1.93
2019-05-09T08:10:33.718Z,2.27
2019-05-09T08:13:03.302Z,2.83
2019-05-09T08:15:32.777Z,2.40
2019-05-09T08:18:02.354Z,2.43
2019-05-09T08:20:32.181Z,2.30
2019-05-09T08:23:02.882Z,2.40
2019-05-09T08:25:32.342Z,2.30
2019-05-09T08:28:02.908Z,2.05
2019-05-09T08:30:36.101Z,2.60
2019-05-09T08:33:03.773Z,2.10
2019-05-09T08:35:33.267Z,2.60
2019-05-09T08:38:02.831Z,2.60
2019-05-09T08:40:32.762Z,2.52
2019-05-09T08:43:02.457Z,2.10
2019-05-09T08:45:32.513Z,3.20
2019-05-09T08:48:02.506Z,1.77
2019-05-09T08:50:54.505Z,1.67
2019-05-09T08:53:23.991Z,2.03
2019-05-09T08:55:53.525Z,1.90
2019-05-09T08:58:23.074Z,2.80
2019-05-09T09:00:52.580Z,1.73
2019-05-09T09:03:22.074Z,2.70
2019-05-09T09:05:51.556Z,2.00
2019-05-09T09:08:21.042Z,2.13
2019-05-09T09:10:50.562Z,2.23
2019-05-09T09:13:20.097Z,2.57
2019-05-09T09:16:08.788Z,2.40
2019-05-09T09:18:20.791Z,2.20
2019-05-09T09:20:50.351Z,1.90
2019-05-09T09:23:19.851Z,2.10
2019-05-09T09:25:49.401Z,3.33
2019-05-09T09:28:18.880Z,1.97
2019-05-09T09:30:48.687Z,2.10
2019-05-09T09:33:18.243Z,2.20
2019-05-09T09:35:49.023Z,2.00
2019-05-09T09:38:18.722Z,2.50
2019-05-09T09:40:48.193Z,2.40
2019-05-09T09:43:17.911Z,2.27
2019-05-09T09:45:48.115Z,1.85
2019-05-09T09:48:18.556Z,2.03
2019-05-09T09:50:51.517Z,2.37
2019-05-09T09:53:19.266Z,2.13
2019-05-09T09:55:48.933Z,2.10
2019-05-09T09:58:19.195Z,1.90
2019-05-09T10:00:54.875Z,2.20
2019-05-09T10:03:24.837Z,1.97
2019-05-09T10:05:54.311Z,1.80
2019-05-09T10:08:23.864Z,2.30
2019-05-09T10:10:53.413Z,1.90
2019-05-09T10:13:23.048Z,1.67
2019-05-09T10:16:25.522Z,1.93
2019-05-09T10:18:53.169Z,1.90
2019-05-09T10:21:27.658Z,1.70
2019-05-09T10:23:57.650Z,1.77
2019-05-09T10:26:28.431Z,1.77
2019-05-09T10:28:58.038Z,2.00
2019-05-09T10:31:28.234Z,1.93
2019-05-09T10:33:58.903Z,1.70
2019-05-09T10:36:28.472Z,2.00
2019-05-09T10:38:58.587Z,2.17
2019-05-09T10:41:28.381Z,1.70
2019-05-09T10:44:28.309Z,1.80
2019-05-09T10:47:16.591Z,1.80
2019-05-09T10:49:48.603Z,1.40
2019-05-09T10:52:18.170Z,1.50
2019-05-09T10:54:47.838Z,1.27
2019-05-09T10:57:17.306Z,1.80
2019-05-09T10:59:48.323Z,1.93
2019-05-09T11:02:18.006Z,1.60
2019-05-09T11:04:49.181Z,1.70
2019-05-09T11:07:18.757Z,1.63
2019-05-09T11:09:48.474Z,1.73
2019-05-09T11:12:18.137Z,1.70
2019-05-09T11:14:48.438Z,1.13
2019-05-09T11:17:21.690Z,2.40
2019-05-09T11:19:49.164Z,3.07
2019-05-09T11:22:18.636Z,1.70
2019-05-09T11:24:51.170Z,1.20
2019-05-09T11:27:19.413Z,1.60
2019-05-09T11:29:49.864Z,1.45
2019-05-09T11:32:20.594Z,1.40
2019-05-09T11:34:51.055Z,1.40
2019-05-09T11:37:22.296Z,1.40
2019-05-09T11:39:51.814Z,1.20
2019-05-09T11:42:21.293Z,1.70
2019-05-09T11:44:50.777Z,1.57
2019-05-09T11:47:32.044Z,1.30
2019-05-09T11:49:51.501Z,1.30
2019-05-09T11:52:20.951Z,1.60
2019-05-09T11:54:50.548Z,1.50
2019-05-09T11:57:20.019Z,1.70
2019-05-09T11:59:49.571Z,1.33
2019-05-09T12:02:19.037Z,1.10
2019-05-09T12:04:48.853Z,1.30
2019-05-09T12:07:18.381Z,1.70
2019-05-09T12:09:48.839Z,1.60
2019-05-09T12:12:19.727Z,1.30
2019-05-09T12:14:49.174Z,1.70
2019-05-09T12:17:19.727Z,1.70
2019-05-09T12:19:49.514Z,1.20
2019-05-09T12:22:19.426Z,2.13
2019-05-09T12:24:53.571Z,1.30
2019-05-09T12:27:21.064Z,1.22
2019-05-09T12:29:50.530Z,1.60
2019-05-09T12:32:20.013Z,1.80
2019-05-09T12:34:49.522Z,2.20
2019-05-09T12:37:19.017Z,3.30
2019-05-09T12:39:48.510Z,1.40
2019-05-09T12:42:18.735Z,1.43
2019-05-09T12:44:49.501Z,1.33
2019-05-09T12:47:19.329Z,1.27
2019-05-09T12:49:48.976Z,1.42
2019-05-09T12:52:18.720Z,1.10
2019-05-09T12:54:48.483Z,1.50
2019-05-09T12:57:19.173Z,1.60
2019-05-09T12:59:52.664Z,1.60
2019-05-09T13:02:20.542Z,1.47
2019-05-09T13:04:50.019Z,1.30
2019-05-09T13:07:19.923Z,1.20
2019-05-09T13:09:52.664Z,1.80
2019-05-09T13:12:20.662Z,1.43
2019-05-09T13:14:50.131Z,1.37
2019-05-09T13:17:38.446Z,1.62
2019-05-09T13:20:09.070Z,1.37
2019-05-09T13:22:38.559Z,2.12
2019-05-09T13:25:09.668Z,1.53
2019-05-09T13:27:39.229Z,1.30
2019-05-09T13:30:09.141Z,1.60
2019-05-09T13:32:38.631Z,1.40
2019-05-09T13:35:08.191Z,1.40
2019-05-09T13:37:38.365Z,1.35
2019-05-09T13:40:08.553Z,2.17
2019-05-09T13:42:39.783Z,1.40
2019-05-09T13:45:10.368Z,1.80
2019-05-09T13:47:39.858Z,1.80
2019-05-09T13:50:09.942Z,1.90
2019-05-09T13:52:40.600Z,1.40
2019-05-09T13:55:10.066Z,1.30
2019-05-09T13:57:39.645Z,1.30
2019-05-09T14:00:09.227Z,1.00
2019-05-09T14:02:38.762Z,1.30
2019-05-09T14:05:09.196Z,1.40
2019-05-09T14:07:39.660Z,1.53
2019-05-09T14:10:10.415Z,1.60
2019-05-09T14:12:39.977Z,1.67
2019-05-09T14:15:09.529Z,2.43
2019-05-09T14:17:49.078Z,1.30
2019-05-09T14:20:10.270Z,1.17
2019-05-09T14:22:39.940Z,1.50
2019-05-09T14:25:11.478Z,1.50
2019-05-09T14:27:40.694Z,2.10
2019-05-09T14:30:10.260Z,1.27
2019-05-09T14:32:40.397Z,1.47
2019-05-09T14:35:10.985Z,1.70
2019-05-09T14:37:40.494Z,1.23
2019-05-09T14:40:10.508Z,1.40
2019-05-09T14:42:40.724Z,1.60
2019-05-09T14:45:10.556Z,1.40
2019-05-09T14:47:42.477Z,0.93
2019-05-09T14:50:11.671Z,1.57
2019-05-09T14:52:41.142Z,1.13
2019-05-09T14:55:10.700Z,1.10
2019-05-09T14:57:40.182Z,1.83
2019-05-09T15:00:10.107Z,1.60
2019-05-09T15:02:39.588Z,1.20
2019-05-09T15:05:09.753Z,1.27
2019-05-09T15:07:39.295Z,1.17
2019-05-09T15:10:09.126Z,1.43
2019-05-09T15:12:39.212Z,1.20
2019-05-09T15:15:11.121Z,1.23
2019-05-09T15:17:40.604Z,1.10
2019-05-09T15:20:10.719Z,1.93
2019-05-09T15:22:40.185Z,1.37
2019-05-09T15:25:09.758Z,1.47
2019-05-09T15:27:39.304Z,1.20
2019-05-09T15:30:10.503Z,1.10
2019-05-09T15:32:41.058Z,1.17
2019-05-09T15:35:10.732Z,1.83
2019-05-09T15:37:40.288Z,1.33
2019-05-09T15:40:09.861Z,1.37
2019-05-09T15:42:39.350Z,1.30
2019-05-09T15:45:09.107Z,1.30
2019-05-09T15:47:38.686Z,1.00
2019-05-09T15:50:19.334Z,1.20
2019-05-09T15:52:39.757Z,0.97
2019-05-09T15:55:09.825Z,1.10
2019-05-09T15:57:39.394Z,0.97
2019-05-09T16:00:10.280Z,1.30
2019-05-09T16:02:39.944Z,1.40
2019-05-09T16:05:10.660Z,1.00
2019-05-09T16:07:40.369Z,0.93
2019-05-09T16:10:10.036Z,0.90
2019-05-09T16:12:39.621Z,1.00
2019-05-09T16:15:10.090Z,1.03
2019-05-09T16:17:39.624Z,1.20
2019-05-09T16:20:09.203Z,1.32
2019-05-09T16:22:39.356Z,1.30
2019-05-09T16:25:09.081Z,1.00
2019-05-09T16:27:38.570Z,1.10
2019-05-09T16:30:09.101Z,1.20
2019-05-09T16:32:38.598Z,1.83
2019-05-09T16:35:08.211Z,0.90
2019-05-09T16:37:56.967Z,1.10
2019-05-09T16:40:09.998Z,1.27
2019-05-09T16:42:39.967Z,0.90
2019-05-09T16:45:09.537Z,1.07
2019-05-09T16:47:39.107Z,1.23
2019-05-09T16:50:11.936Z,1.30
2019-05-09T16:52:43.453Z,1.23
2019-05-09T16:55:17.944Z,1.00
2019-05-09T16:57:47.183Z,1.30
2019-05-09T17:00:30.373Z,1.00
2019-05-09T17:02:59.852Z,0.87
2019-05-09T17:05:29.404Z,0.97
2019-05-09T17:07:58.909Z,0.90
2019-05-09T17:10:28.434Z,0.80
2019-05-09T17:12:58.363Z,0.80
2019-05-09T17:15:29.212Z,0.90
2019-05-09T17:17:58.872Z,1.20
2019-05-09T17:20:34.870Z,0.97
2019-05-09T17:23:14.805Z,1.00
2019-05-09T17:25:42.220Z,1.00
2019-05-09T17:28:11.774Z,1.20
2019-05-09T17:30:41.413Z,0.80
2019-05-09T17:33:10.914Z,0.90
2019-05-09T17:35:40.661Z,0.97
2019-05-09T17:38:10.286Z,0.90
2019-05-09T17:40:39.785Z,1.02
2019-05-09T17:43:09.278Z,1.00
2019-05-09T17:45:41.902Z,1.00
2019-05-09T17:48:10.067Z,0.87
2019-05-09T17:50:39.562Z,0.90
2019-05-09T17:53:09.043Z,1.10
2019-05-09T17:55:38.539Z,0.90
2019-05-09T17:58:08.970Z,0.87
2019-05-09T18:00:38.625Z,0.90
2019-05-09T18:03:08.199Z,1.10
2019-05-09T18:05:38.984Z,0.90
2019-05-09T18:08:09.533Z,1.13
2019-05-09T18:10:39.165Z,1.10
2019-05-09T18:13:08.705Z,1.10
2019-05-09T18:15:38.681Z,0.90
2019-05-09T18:18:08.692Z,0.80
2019-05-09T18:20:38.670Z,1.20
2019-05-09T18:23:08.950Z,0.90
2019-05-09T18:25:38.530Z,0.90
2019-05-09T18:28:08.298Z,0.90
2019-05-09T18:30:38.802Z,1.00
2019-05-09T18:33:15.252Z,1.10
2019-05-09T18:35:44.784Z,0.90
2019-05-09T18:38:22.157Z,1.00
2019-05-09T18:40:54.502Z,0.80
2019-05-09T18:43:23.998Z,1.00
2019-05-09T18:45:53.485Z,0.97
2019-05-09T18:48:23.081Z,1.10
2019-05-09T18:50:52.564Z,1.27
2019-05-09T18:53:22.080Z,1.17
2019-05-09T18:55:51.551Z,1.40
2019-05-09T18:58:21.091Z,1.20
2019-05-09T19:00:51.050Z,0.90
2019-05-09T19:03:20.579Z,1.20
2019-05-09T19:05:50.270Z,0.90
2019-05-09T19:08:19.750Z,1.17
2019-05-09T19:10:52.089Z,1.00
2019-05-09T19:13:20.674Z,0.90
2019-05-09T19:16:06.404Z,1.13
2019-05-09T19:18:48.802Z,1.17
2019-05-09T19:21:22.001Z,1.20
2019-05-09T19:23:51.572Z,1.25
2019-05-09T19:26:36.427Z,1.10
2019-05-09T19:29:07.561Z,1.07
2019-05-09T19:31:37.365Z,1.00
2019-05-09T19:34:07.044Z,1.07
2019-05-09T19:36:37.008Z,0.93
2019-05-09T19:39:10.403Z,1.30
2019-05-09T19:41:40.638Z,1.10
2019-05-09T19:44:10.735Z,1.12
2019-05-09T19:46:41.248Z,1.50
2019-05-09T19:49:10.754Z,1.33
2019-05-09T19:51:40.820Z,1.10
2019-05-09T19:54:10.785Z,1.22
2019-05-09T19:56:40.815Z,1.02
2019-05-09T19:59:10.819Z,1.30
2019-05-09T20:01:40.752Z,1.55
2019-05-09T20:04:10.773Z,1.62
2019-05-09T20:06:40.883Z,1.40
2019-05-09T20:09:17.783Z,1.10
2019-05-09T20:12:09.094Z,1.17
2019-05-09T20:14:41.549Z,1.10
2019-05-09T20:17:11.031Z,1.33
2019-05-09T20:19:40.830Z,1.30
2019-05-09T20:22:10.839Z,1.30
2019-05-09T20:24:40.838Z,1.30
2019-05-09T20:27:11.009Z,1.27
2019-05-09T20:29:40.862Z,1.92
2019-05-09T20:32:10.956Z,1.40
2019-05-09T20:34:41.065Z,1.27
2019-05-09T20:37:10.993Z,1.32
2019-05-09T20:39:41.172Z,1.40
2019-05-09T20:42:11.280Z,1.62
2019-05-09T20:44:41.430Z,1.52
2019-05-09T20:47:11.249Z,1.47
2019-05-09T20:49:41.247Z,1.50
2019-05-09T20:52:11.282Z,1.65
2019-05-09T20:54:41.258Z,2.08
2019-05-09T20:57:11.332Z,1.52
2019-05-09T20:59:41.353Z,1.65
2019-05-09T21:02:11.434Z,1.70
2019-05-09T21:04:41.266Z,1.67
2019-05-09T21:07:11.479Z,2.05
2019-05-09T21:09:41.443Z,1.70
2019-05-09T21:12:11.475Z,2.00
2019-05-09T21:14:41.473Z,1.57
2019-05-09T21:17:11.539Z,2.33
2019-05-09T21:19:41.537Z,1.90
2019-05-09T21:22:11.550Z,2.12
2019-05-09T21:24:41.608Z,1.90
2019-05-09T21:27:11.612Z,2.62
2019-05-09T21:29:42.450Z,1.80
2019-05-09T21:32:12.474Z,1.57
2019-05-09T21:34:41.943Z,1.83
2019-05-09T21:37:13.919Z,1.70
2019-05-09T21:39:42.724Z,1.77
2019-05-09T21:42:12.272Z,1.87
2019-05-09T21:44:41.744Z,1.70
2019-05-09T21:47:11.594Z,1.77
2019-05-09T21:49:41.546Z,1.50
2019-05-09T21:52:11.581Z,1.57
2019-05-09T21:54:41.636Z,2.25
2019-05-09T21:57:11.626Z,1.47
2019-05-09T21:59:41.642Z,1.67
2019-05-09T22:02:11.754Z,2.47
2019-05-09T22:04:41.772Z,1.55
2019-05-09T22:07:12.056Z,1.85
2019-05-09T22:09:41.877Z,1.52
2019-05-09T22:12:11.424Z,2.00
2019-05-09T22:14:40.930Z,2.00
2019-05-09T22:17:18.843Z,1.50
2019-05-09T22:19:48.310Z,1.70
2019-05-09T22:22:17.874Z,1.70
2019-05-09T22:24:47.333Z,1.50
2019-05-09T22:27:16.835Z,1.63
2019-05-09T22:29:46.365Z,1.63
2019-05-09T22:32:15.849Z,1.57
2019-05-09T22:34:45.321Z,1.87
2019-05-09T22:37:15.216Z,1.67
2019-05-09T22:39:44.700Z,1.77
2019-05-09T22:42:14.408Z,2.00
2019-05-09T22:44:44.071Z,2.00
2019-05-09T22:47:13.557Z,1.93
2019-05-09T22:49:43.063Z,1.67
2019-05-09T22:52:12.548Z,2.03
2019-05-09T22:54:42.071Z,1.80
2019-05-09T22:57:11.615Z,1.60
2019-05-09T22:59:41.138Z,1.73
2019-05-09T23:02:10.665Z,1.50
2019-05-09T23:04:40.170Z,1.80
2019-05-09T23:07:09.782Z,1.63
2019-05-09T23:09:39.941Z,1.65
2019-05-09T23:12:10.263Z,1.75
2019-05-09T23:14:39.746Z,1.47
2019-05-09T23:17:09.707Z,1.50
2019-05-09T23:19:39.262Z,1.53
2019-05-09T23:22:09.318Z,1.90
2019-05-09T23:24:39.108Z,1.60
2019-05-09T23:27:10.947Z,1.77
2019-05-09T23:29:41.235Z,2.02
2019-05-09T23:32:26.860Z,1.80
2019-05-09T23:34:56.371Z,1.93
2019-05-09T23:37:25.962Z,1.67
2019-05-09T23:39:55.469Z,2.00
2019-05-09T23:42:24.979Z,2.10
2019-05-09T23:44:54.498Z,1.97
2019-05-09T23:47:24.150Z,2.07
2019-05-09T23:49:53.654Z,1.93
2019-05-09T23:52:23.141Z,1.70
2019-05-09T23:55:10.915Z,2.00
2019-05-09T23:57:58.120Z,1.90
